createdAt,value
2022-12-31T00:02:35.000Z,38.18
2022-12-31T00:12:34.000Z,39.76
2022-12-31T00:17:35.000Z,39.76
2022-12-31T00:22:35.000Z,37.64
2022-12-31T00:27:35.000Z,37.77
2022-12-31T00:32:35.000Z,38.05
2022-12-31T00:42:35.000Z,36.63
2022-12-31T00:47:34.000Z,37.55
2022-12-31T00:52:35.000Z,36.8
2022-12-31T00:57:35.000Z,36.45
2022-12-31T01:02:35.000Z,35.68
2022-12-31T01:07:34.000Z,36
2022-12-31T01:12:35.000Z,35.11
2022-12-31T01:17:35.000Z,35.11
2022-12-31T01:22:35.000Z,36.66
2022-12-31T01:27:35.000Z,34.52
2022-12-31T01:32:35.000Z,33.54
2022-12-31T01:37:35.000Z,33.4
2022-12-31T01:42:35.000Z,31.66
2022-12-31T01:47:35.000Z,29.17
2022-12-31T01:52:35.000Z,32.92
2022-12-31T01:57:34.000Z,31.72
2022-12-31T02:02:35.000Z,29.41
2022-12-31T02:07:34.000Z,27.93
2022-12-31T02:12:35.000Z,28.34
2022-12-31T02:17:34.000Z,29.26
2022-12-31T02:22:35.000Z,28.26
2022-12-31T02:27:34.000Z,28.91
2022-12-31T02:32:34.000Z,28.91
2022-12-31T02:37:34.000Z,27.64
2022-12-31T02:42:35.000Z,28.2
2022-12-31T02:47:35.000Z,25.5
2022-12-31T02:52:35.000Z,24.31
2022-12-31T02:57:34.000Z,23.71
2022-12-31T03:02:35.000Z,26.04
2022-12-31T03:07:35.000Z,27.2
2022-12-31T03:12:35.000Z,27.95
2022-12-31T03:17:35.000Z,26.88
2022-12-31T03:22:35.000Z,26
2022-12-31T03:27:34.000Z,27.79
2022-12-31T03:32:35.000Z,28.71
2022-12-31T03:37:35.000Z,27.75
2022-12-31T03:42:34.000Z,27.03
2022-12-31T03:52:34.000Z,27.14
2022-12-31T03:57:34.000Z,25.63
2022-12-31T04:02:39.000Z,25.63
2022-12-31T04:07:34.000Z,25.48
2022-12-31T04:12:35.000Z,25.33
2022-12-31T04:17:35.000Z,27.03
2022-12-31T04:22:35.000Z,25.96
2022-12-31T04:27:35.000Z,23.9
2022-12-31T04:32:34.000Z,27.77
2022-12-31T04:37:35.000Z,27.36
2022-12-31T04:42:34.000Z,27.97
2022-12-31T04:47:34.000Z,31.3
2022-12-31T04:52:35.000Z,26.31
2022-12-31T04:57:34.000Z,25.06
2022-12-31T05:07:35.000Z,25.15
2022-12-31T05:12:34.000Z,25.23
2022-12-31T05:17:35.000Z,27.05
2022-12-31T05:22:34.000Z,25.77
2022-12-31T05:27:35.000Z,24.71
2022-12-31T05:32:35.000Z,25.57
2022-12-31T05:37:35.000Z,25.57
2022-12-31T05:42:34.000Z,24.36
2022-12-31T05:47:34.000Z,23.6
2022-12-31T05:52:35.000Z,24.26
2022-12-31T05:57:34.000Z,24.46
2022-12-31T06:02:34.000Z,25.05
2022-12-31T06:12:34.000Z,26.71
2022-12-31T06:17:35.000Z,26.8
2022-12-31T06:22:34.000Z,27.7
2022-12-31T06:27:35.000Z,29.6
2022-12-31T06:32:34.000Z,30.22
2022-12-31T06:37:35.000Z,31.44
2022-12-31T06:42:34.000Z,31.01
2022-12-31T06:47:35.000Z,29.57
2022-12-31T06:52:35.000Z,29.57
2022-12-31T06:57:34.000Z,28.64
2022-12-31T07:02:35.000Z,30.13
2022-12-31T07:07:35.000Z,27.35
2022-12-31T07:12:35.000Z,26.72
2022-12-31T07:17:35.000Z,26.23
2022-12-31T07:22:34.000Z,25.79
2022-12-31T07:27:35.000Z,24.19
2022-12-31T07:32:34.000Z,24.38
2022-12-31T07:37:35.000Z,26.76
2022-12-31T07:42:34.000Z,24.94
2022-12-31T07:47:35.000Z,23.33
2022-12-31T07:52:34.000Z,21.12
2022-12-31T07:57:35.000Z,20.38
2022-12-31T08:02:35.000Z,20.47
2022-12-31T08:07:35.000Z,20.47
2022-12-31T08:12:35.000Z,19.99
2022-12-31T08:17:34.000Z,20.75
2022-12-31T08:22:35.000Z,22.75
2022-12-31T08:27:35.000Z,18.06
2022-12-31T08:32:35.000Z,18.21
2022-12-31T08:37:35.000Z,18.09
2022-12-31T08:42:34.000Z,19
2022-12-31T08:47:35.000Z,16.05
2022-12-31T08:52:35.000Z,15.76
2022-12-31T08:57:35.000Z,15.41
2022-12-31T09:02:34.000Z,15.89
2022-12-31T09:07:35.000Z,14.76
2022-12-31T09:12:34.000Z,17.08
2022-12-31T09:17:35.000Z,16.05
2022-12-31T09:22:35.000Z,16.05
2022-12-31T09:27:38.000Z,16.38
2022-12-31T09:32:35.000Z,16.44
2022-12-31T09:37:35.000Z,16.8
2022-12-31T09:42:34.000Z,16.13
2022-12-31T09:47:35.000Z,16.59
2022-12-31T09:52:35.000Z,15.63
2022-12-31T09:57:35.000Z,16.09
2022-12-31T10:02:35.000Z,14.55
2022-12-31T10:07:35.000Z,17.09
2022-12-31T10:12:35.000Z,19.88
2022-12-31T10:17:35.000Z,19.88
2022-12-31T10:22:35.000Z,20.2
2022-12-31T10:27:34.000Z,20.69
2022-12-31T10:32:41.000Z,20
2022-12-31T10:37:34.000Z,19.34
2022-12-31T10:42:35.000Z,18.96
2022-12-31T10:47:35.000Z,18.36
2022-12-31T10:52:34.000Z,17.64
2022-12-31T10:57:35.000Z,15.19
2022-12-31T11:02:34.000Z,15.92
2022-12-31T11:07:35.000Z,16.98
2022-12-31T11:12:34.000Z,16.46
2022-12-31T11:17:34.000Z,17.01
2022-12-31T11:22:34.000Z,16.14
2022-12-31T11:27:35.000Z,16.6
2022-12-31T11:32:34.000Z,16.6
2022-12-31T11:37:35.000Z,16.23
2022-12-31T11:42:34.000Z,17.77
2022-12-31T11:47:35.000Z,17.89
2022-12-31T11:52:35.000Z,20.53
2022-12-31T11:57:35.000Z,18.55
2022-12-31T12:02:35.000Z,18.42
2022-12-31T12:07:35.000Z,19.23
2022-12-31T12:12:34.000Z,17.17
2022-12-31T12:17:34.000Z,18.23
2022-12-31T12:22:34.000Z,17.47
2022-12-31T12:32:35.000Z,20.03
2022-12-31T12:37:35.000Z,26.31
2022-12-31T12:42:35.000Z,21.93
2022-12-31T12:47:34.000Z,19.34
2022-12-31T12:52:34.000Z,21.39
2022-12-31T12:57:35.000Z,19.61
2022-12-31T13:02:34.000Z,20.06
2022-12-31T13:07:35.000Z,17.86
2022-12-31T13:12:34.000Z,20.01
2022-12-31T13:17:35.000Z,17.99
2022-12-31T13:22:35.000Z,16.65
2022-12-31T13:27:34.000Z,16.65
2022-12-31T13:32:35.000Z,16.79
2022-12-31T13:47:35.000Z,15.03
2022-12-31T13:52:34.000Z,14.53
2022-12-31T13:57:35.000Z,15.62
2022-12-31T14:02:35.000Z,17.46
2022-12-31T14:07:44.000Z,19.44
2022-12-31T14:12:35.000Z,22.87
2022-12-31T14:17:35.000Z,23.18
2022-12-31T14:27:35.000Z,25.32
2022-12-31T14:32:35.000Z,26.85
2022-12-31T14:37:35.000Z,26.85
2022-12-31T14:42:34.000Z,25.15
2022-12-31T14:47:35.000Z,26.37
2022-12-31T14:52:34.000Z,26.8
2022-12-31T14:57:35.000Z,26.46
2022-12-31T15:02:34.000Z,29.86
2022-12-31T15:07:35.000Z,30.67
2022-12-31T15:12:34.000Z,35.86
2022-12-31T15:17:35.000Z,35.68
2022-12-31T15:22:35.000Z,36.53
2022-12-31T15:27:35.000Z,38.05
2022-12-31T15:32:34.000Z,43.27
2022-12-31T15:37:35.000Z,45
2022-12-31T15:42:48.000Z,44.59
2022-12-31T15:47:35.000Z,44.59
2022-12-31T15:52:34.000Z,42.82
2022-12-31T15:57:35.000Z,41.22
2022-12-31T16:02:36.000Z,40.82
2022-12-31T16:07:35.000Z,35.65
2022-12-31T16:12:43.000Z,30.82
2022-12-31T16:17:34.000Z,22.85
2022-12-31T16:22:35.000Z,23.51
2022-12-31T16:27:35.000Z,25.52
2022-12-31T16:32:34.000Z,28.05
2022-12-31T16:37:35.000Z,34
2022-12-31T16:42:34.000Z,46.3
2022-12-31T16:47:35.000Z,34.72
2022-12-31T16:52:35.000Z,30.03
2022-12-31T16:57:35.000Z,29.67
2022-12-31T17:02:35.000Z,29.67
2022-12-31T17:07:34.000Z,29.5
2022-12-31T17:12:35.000Z,28.75
2022-12-31T17:17:35.000Z,27.53
2022-12-31T17:22:46.000Z,26.53
2022-12-31T17:27:34.000Z,29.29
2022-12-31T17:32:35.000Z,28.57
2022-12-31T17:37:34.000Z,25.36
2022-12-31T17:42:35.000Z,25.6
2022-12-31T17:47:34.000Z,26.9
2022-12-31T17:52:35.000Z,23.59
2022-12-31T17:57:35.000Z,23.88
2022-12-31T18:02:36.000Z,21.78
2022-12-31T18:07:35.000Z,21.59
2022-12-31T18:12:35.000Z,18.76
2022-12-31T18:17:35.000Z,18.76
2022-12-31T18:22:34.000Z,19.83
2022-12-31T18:27:35.000Z,18.55
2022-12-31T18:32:34.000Z,18.14
2022-12-31T18:37:35.000Z,18.24
2022-12-31T18:42:35.000Z,15.81
2022-12-31T18:47:35.000Z,17.26
2022-12-31T18:52:35.000Z,20.14
2022-12-31T19:07:35.000Z,29.01
2022-12-31T19:12:34.000Z,25.72
2022-12-31T19:17:35.000Z,25.13
2022-12-31T19:22:35.000Z,23.54
2022-12-31T19:27:35.000Z,30.49
2022-12-31T19:32:35.000Z,23.06
2022-12-31T19:37:35.000Z,17.53
2022-12-31T19:42:34.000Z,16.34
2022-12-31T19:47:34.000Z,16.64
2022-12-31T19:52:35.000Z,15.6
2022-12-31T19:57:35.000Z,13.66
2022-12-31T20:02:35.000Z,13.6
2022-12-31T20:07:37.000Z,12.38
2022-12-31T20:12:34.000Z,12
2022-12-31T20:17:35.000Z,12
2022-12-31T20:22:35.000Z,12.27
2022-12-31T20:27:35.000Z,11.56
2022-12-31T20:32:34.000Z,14.28
2022-12-31T20:37:35.000Z,13.67
2022-12-31T20:42:34.000Z,12.6
2022-12-31T20:47:35.000Z,12.71
2022-12-31T20:52:34.000Z,13.79
2022-12-31T20:57:43.000Z,13.39
2022-12-31T21:02:51.000Z,14.21
2022-12-31T21:07:35.000Z,14.31
2022-12-31T21:12:35.000Z,14.78
2022-12-31T21:17:35.000Z,16.04
2022-12-31T21:22:35.000Z,36.2
2022-12-31T21:27:35.000Z,24.52
2022-12-31T21:32:34.000Z,24.52
2022-12-31T21:38:09.000Z,20.25
2022-12-31T21:42:34.000Z,18.09
2022-12-31T21:47:47.000Z,21.31
2022-12-31T21:52:35.000Z,26.41
2022-12-31T21:57:35.000Z,32.13
2022-12-31T22:02:35.000Z,35.54
2022-12-31T22:12:35.000Z,73.06
2022-12-31T22:17:34.000Z,64.46
2022-12-31T22:22:35.000Z,44.43
2022-12-31T22:27:39.000Z,32.65
2022-12-31T22:32:35.000Z,30.64
2022-12-31T22:38:06.000Z,24.56
2022-12-31T22:42:34.000Z,23.92
2022-12-31T22:47:35.000Z,29.97
2022-12-31T22:52:34.000Z,29.97
2022-12-31T22:57:35.000Z,28.85
2022-12-31T23:02:34.000Z,27.78
2022-12-31T23:07:35.000Z,24.91
2022-12-31T23:12:34.000Z,22.62
2022-12-31T23:17:41.000Z,22.85
2022-12-31T23:22:34.000Z,21.94
2022-12-31T23:27:35.000Z,22.77
2022-12-31T23:32:35.000Z,22.91
2022-12-31T23:42:34.000Z,22.27
2022-12-31T23:47:35.000Z,22.17
2022-12-31T23:57:34.000Z,21.19
